Hughesville, Missouri
Current Conditions -  °F | °C
As of 6:53 AM on Tuesday 21 Oct 2014 (Local Time) from KDMO Reporting Station
Haze Haze  
Wind Chill:   Ceiling: Unl
Heat Index:   Visibility: 5mi
Dew Point:   Wind: 3mph
Humidity: 80%   Direction: 270°W
Pressure: 30.12"   Gusts: NA
Location:  38.84°N, 93.3°W
Report Text: KDMO 211153Z AUTO 27003KT 5SM HZ CLR 09/06 A3012 RMK AO2 SLP198 T00890056 10122 20078 51015
Loading
Personal Weather Stations






























Interactive Weather Map
Tropical Storm Tracking
New forecast layout! Learn more

10-Day Weather Forecast

Advertisements
Track Severe Weather on mobile